Bettina K — PBEW — position and weather

sailwx.info

Track history (hours):
 
Tides and Currents Weather Stations Pressure Air Temp Water Temp Dewpoint Dewpoint Depression Visibility Wind Speed Wind Dir Waves Ship Positions

Bettina K

Last reported at 2015-Sep-01 15:33 UTC. Time now 2015-Sep-03 23:27 UTC.
Position N 54°25' E 007°03'.

Length 82 m; draft 3 m.

Type: Cargo ship. MMSI: 244730469.

Date/timePositionNaut miles runAvg speedWind from/ knotsBaromVisibWave heightAir tempDewpointWater temp
2015-Sep-01 15:33N 54°25' E 007°03'9 9.3
2015-Sep-01 14:33N 54°19' E 007°16'9 8.8
2015-Sep-01 13:34N 54°13' E 007°27'8 8.4
2015-Sep-01 12:33N 54°06' E 007°34'7 7.2
2015-Sep-01 11:33N 53°60' E 007°40'8 7.9
2015-Sep-01 10:33N 53°53' E 007°47'7 6.7
2015-Sep-01 09:33N 53°52' E 007°58'7 6.6
2015-Sep-01 08:33N 53°48' E 008°08'10 9.8
2015-Sep-01 07:33N 53°42' E 008°20'1212.0
2015-Sep-01 06:33N 53°33' E 008°34'1111.3
2015-Sep-01 05:33N 53°22' E 008°30'1111.1
2015-Sep-01 04:33N 53°11' E 008°34'5 4.5
2015-Sep-01 03:33N 53°07' E 008°39'0 0.0
2015-Sep-01 02:33N 53°07' E 008°39'0 0.0
2015-Sep-01 01:33N 53°07' E 008°39'0 0.0
2015-Sep-01 00:33N 53°07' E 008°39'0 0.0
2015-Aug-31 23:33N 53°07' E 008°39'0 0.0
2015-Aug-31 22:33N 53°07' E 008°39'0 0.0
2015-Aug-31 21:33N 53°07' E 008°39'0 0.0
2015-Aug-31 20:33N 53°07' E 008°39'0 0.0
2015-Aug-31 19:33N 53°07' E 008°39'0 0.0
2015-Aug-31 18:33N 53°07' E 008°39'0 0.0
2015-Aug-31 17:33N 53°07' E 008°39'0 0.0
2015-Aug-31 16:33N 53°07' E 008°39'0 0.0
2015-Aug-31 15:33N 53°07' E 008°39'0 0.0
2015-Aug-31 14:33N 53°07' E 008°39'0 0.0
2015-Aug-31 13:33N 53°07' E 008°39'0 0.0
2015-Aug-31 12:33N 53°07' E 008°39'0 0.0
2015-Aug-31 11:33N 53°07' E 008°39'0 0.0
2015-Aug-31 10:33N 53°07' E 008°39'0 0.0
2015-Aug-31 09:33N 53°07' E 008°39'0 0.0
2015-Aug-31 08:30N 53°07' E 008°39'0 0.0
2015-Aug-31 07:33N 53°07' E 008°39'0 0.0
2015-Aug-31 06:33N 53°07' E 008°39'0 0.0
2015-Aug-31 05:33N 53°07' E 008°39'0 0.0
2015-Aug-31 04:33N 53°07' E 008°39'0 0.0
2015-Aug-31 03:33N 53°07' E 008°39'0 0.0
2015-Aug-31 02:33N 53°07' E 008°39'0 0.0
2015-Aug-31 01:33N 53°07' E 008°39'0 0.0
2015-Aug-31 00:33N 53°07' E 008°39'0 0.0
2015-Aug-30 23:33N 53°07' E 008°39'0 0.0
2015-Aug-30 22:33N 53°07' E 008°39'0 0.0
2015-Aug-30 21:33N 53°07' E 008°39'0 0.0
2015-Aug-30 20:30N 53°07' E 008°39'0 0.0
2015-Aug-30 19:33N 53°07' E 008°39'0 0.0
2015-Aug-30 18:33N 53°07' E 008°39'0 0.0
2015-Aug-30 17:33N 53°07' E 008°39'0 0.0
2015-Aug-30 16:33N 53°07' E 008°39'0 0.0
2015-Aug-30 15:33N 53°07' E 008°39'0 0.0
2015-Aug-30 14:33N 53°07' E 008°39'5 5.4
2015-Aug-30 13:33N 53°11' E 008°32'8 7.8
2015-Aug-30 12:33N 53°19' E 008°29'9 9.5
2015-Aug-30 11:33N 53°28' E 008°30'8 7.6
2015-Aug-30 10:34N 53°36' E 008°30'1111.1
2015-Aug-30 09:34N 53°43' E 008°16'1111.1
2015-Aug-30 08:33N 53°51' E 008°02'1110.7
2015-Aug-30 07:33N 53°53' E 007°45'10 9.9
2015-Aug-30 06:33N 54°01' E 007°35'7 6.9
2015-Aug-30 05:32N 54°07' E 007°29'7 7.2
2015-Aug-30 04:33N 54°13' E 007°23'7 6.8
2015-Aug-30 03:34N 54°19' E 007°16'7 6.4
2015-Aug-30 02:33N 54°23' E 007°08'73 5.9
2015-Aug-29 14:18N 55°05' E 005°25'275 6.6
2015-Aug-27 20:30N 57°38' W 001°28'7 7.7
2015-Aug-27 19:33N 57°42' W 001°40'8 7.7
2015-Aug-27 18:33N 57°45' W 001°53'  
2015-Aug-25 07:16N 57°45' W 001°59'353 8.8
2015-Aug-23 15:17N 54°31' E 006°50'3 3.7
2015-Aug-23 14:31N 54°29' E 006°54'9 9.6
2015-Aug-23 13:33N 54°24' E 007°07'9 9.5
2015-Aug-23 12:33N 54°19' E 007°21'10 9.8
2015-Aug-23 11:33N 54°13' E 007°34'1010.3
2015-Aug-23 10:33N 54°07' E 007°49'1110.9
2015-Aug-23 09:33N 54°02' E 008°05'1212.0
2015-Aug-23 08:33N 53°59' E 008°25'1212.3
2015-Aug-23 07:33N 53°53' E 008°43'1010.1
2015-Aug-23 06:33N 53°51' E 008°60'6 6.0
2015-Aug-23 05:33N 53°54' E 009°09'6 5.7
2015-Aug-23 04:33N 53°58' E 009°15'9 8.6
2015-Aug-23 03:32N 54°06' E 009°20'8 7.8
2015-Aug-23 02:29N 54°11' E 009°31'8 8.2
2015-Aug-23 01:33N 54°17' E 009°39'8 7.9
2015-Aug-23 00:34N 54°22' E 009°50'6 6.3
2015-Aug-22 23:33N 54°22' E 010°01'4 4.4
2015-Aug-22 22:33N 54°22' E 010°08'1 1.2
2015-Aug-22 21:33N 54°23' E 010°10'1 1.0
2015-Aug-22 20:33N 54°23' E 010°12'9 9.2
2015-Aug-22 19:33N 54°31' E 010°21'1110.8
2015-Aug-22 18:33N 54°35' E 010°38'1110.3
2015-Aug-22 17:30N 54°36' E 010°57'1111.2
2015-Aug-22 16:33N 54°35' E 011°15'1111.5
2015-Aug-22 15:33N 54°28' E 011°32'  
Track history (hours):
 
Tides and Currents Weather Stations Pressure Air Temp Water Temp Dewpoint Dewpoint Depression Visibility Wind Speed Wind Dir Waves Ship Positions

Bettina K

Last reported at 2015-Sep-01 15:33 UTC. Time now 2015-Sep-03 23:27 UTC.
Position N 54°25' E 007°03'.

Length 82 m; draft 3 m.

Type: Cargo ship. MMSI: 244730469.

Date/timePositionNaut miles runAvg speedWind from/ knotsBaromVisibWave heightAir tempDewpointWater temp
2015-Sep-01 15:33N 54°25' E 007°03'9 9.3
2015-Sep-01 14:33N 54°19' E 007°16'9 8.8
2015-Sep-01 13:34N 54°13' E 007°27'8 8.4
2015-Sep-01 12:33N 54°06' E 007°34'7 7.2
2015-Sep-01 11:33N 53°60' E 007°40'8 7.9
2015-Sep-01 10:33N 53°53' E 007°47'7 6.7
2015-Sep-01 09:33N 53°52' E 007°58'7 6.6
2015-Sep-01 08:33N 53°48' E 008°08'10 9.8
2015-Sep-01 07:33N 53°42' E 008°20'1212.0
2015-Sep-01 06:33N 53°33' E 008°34'1111.3
2015-Sep-01 05:33N 53°22' E 008°30'1111.1
2015-Sep-01 04:33N 53°11' E 008°34'5 4.5
2015-Sep-01 03:33N 53°07' E 008°39'0 0.0
2015-Sep-01 02:33N 53°07' E 008°39'0 0.0
2015-Sep-01 01:33N 53°07' E 008°39'0 0.0
2015-Sep-01 00:33N 53°07' E 008°39'0 0.0
2015-Aug-31 23:33N 53°07' E 008°39'0 0.0
2015-Aug-31 22:33N 53°07' E 008°39'0 0.0
2015-Aug-31 21:33N 53°07' E 008°39'0 0.0
2015-Aug-31 20:33N 53°07' E 008°39'0 0.0
2015-Aug-31 19:33N 53°07' E 008°39'0 0.0
2015-Aug-31 18:33N 53°07' E 008°39'0 0.0
2015-Aug-31 17:33N 53°07' E 008°39'0 0.0
2015-Aug-31 16:33N 53°07' E 008°39'0 0.0
2015-Aug-31 15:33N 53°07' E 008°39'0 0.0
2015-Aug-31 14:33N 53°07' E 008°39'0 0.0
2015-Aug-31 13:33N 53°07' E 008°39'0 0.0
2015-Aug-31 12:33N 53°07' E 008°39'0 0.0
2015-Aug-31 11:33N 53°07' E 008°39'0 0.0
2015-Aug-31 10:33N 53°07' E 008°39'0 0.0
2015-Aug-31 09:33N 53°07' E 008°39'0 0.0
2015-Aug-31 08:30N 53°07' E 008°39'0 0.0
2015-Aug-31 07:33N 53°07' E 008°39'0 0.0
2015-Aug-31 06:33N 53°07' E 008°39'0 0.0
2015-Aug-31 05:33N 53°07' E 008°39'0 0.0
2015-Aug-31 04:33N 53°07' E 008°39'0 0.0
2015-Aug-31 03:33N 53°07' E 008°39'0 0.0
2015-Aug-31 02:33N 53°07' E 008°39'0 0.0
2015-Aug-31 01:33N 53°07' E 008°39'0 0.0
2015-Aug-31 00:33N 53°07' E 008°39'0 0.0
2015-Aug-30 23:33N 53°07' E 008°39'0 0.0
2015-Aug-30 22:33N 53°07' E 008°39'0 0.0
2015-Aug-30 21:33N 53°07' E 008°39'0 0.0
2015-Aug-30 20:30N 53°07' E 008°39'0 0.0
2015-Aug-30 19:33N 53°07' E 008°39'0 0.0
2015-Aug-30 18:33N 53°07' E 008°39'0 0.0
2015-Aug-30 17:33N 53°07' E 008°39'0 0.0
2015-Aug-30 16:33N 53°07' E 008°39'0 0.0
2015-Aug-30 15:33N 53°07' E 008°39'0 0.0
2015-Aug-30 14:33N 53°07' E 008°39'5 5.4
2015-Aug-30 13:33N 53°11' E 008°32'8 7.8
2015-Aug-30 12:33N 53°19' E 008°29'9 9.5
2015-Aug-30 11:33N 53°28' E 008°30'8 7.6
2015-Aug-30 10:34N 53°36' E 008°30'1111.1
2015-Aug-30 09:34N 53°43' E 008°16'1111.1
2015-Aug-30 08:33N 53°51' E 008°02'1110.7
2015-Aug-30 07:33N 53°53' E 007°45'10 9.9
2015-Aug-30 06:33N 54°01' E 007°35'7 6.9
2015-Aug-30 05:32N 54°07' E 007°29'7 7.2
2015-Aug-30 04:33N 54°13' E 007°23'7 6.8
2015-Aug-30 03:34N 54°19' E 007°16'7 6.4
2015-Aug-30 02:33N 54°23' E 007°08'73 5.9
2015-Aug-29 14:18N 55°05' E 005°25'275 6.6
2015-Aug-27 20:30N 57°38' W 001°28'7 7.7
2015-Aug-27 19:33N 57°42' W 001°40'8 7.7
2015-Aug-27 18:33N 57°45' W 001°53'  
2015-Aug-25 07:16N 57°45' W 001°59'353 8.8
2015-Aug-23 15:17N 54°31' E 006°50'3 3.7
2015-Aug-23 14:31N 54°29' E 006°54'9 9.6
2015-Aug-23 13:33N 54°24' E 007°07'9 9.5
2015-Aug-23 12:33N 54°19' E 007°21'10 9.8
2015-Aug-23 11:33N 54°13' E 007°34'1010.3
2015-Aug-23 10:33N 54°07' E 007°49'1110.9
2015-Aug-23 09:33N 54°02' E 008°05'1212.0
2015-Aug-23 08:33N 53°59' E 008°25'1212.3
2015-Aug-23 07:33N 53°53' E 008°43'1010.1
2015-Aug-23 06:33N 53°51' E 008°60'6 6.0
2015-Aug-23 05:33N 53°54' E 009°09'6 5.7
2015-Aug-23 04:33N 53°58' E 009°15'9 8.6
2015-Aug-23 03:32N 54°06' E 009°20'8 7.8
2015-Aug-23 02:29N 54°11' E 009°31'8 8.2
2015-Aug-23 01:33N 54°17' E 009°39'8 7.9
2015-Aug-23 00:34N 54°22' E 009°50'6 6.3
2015-Aug-22 23:33N 54°22' E 010°01'4 4.4
2015-Aug-22 22:33N 54°22' E 010°08'1 1.2
2015-Aug-22 21:33N 54°23' E 010°10'1 1.0
2015-Aug-22 20:33N 54°23' E 010°12'9 9.2
2015-Aug-22 19:33N 54°31' E 010°21'1110.8
2015-Aug-22 18:33N 54°35' E 010°38'1110.3
2015-Aug-22 17:30N 54°36' E 010°57'1111.2
2015-Aug-22 16:33N 54°35' E 011°15'1111.5
2015-Aug-22 15:33N 54°28' E 011°32'  

Dump ship's entire track history